Dauntless Aviation
Airports Asia Macau
XZM

Macau Heliport At Outer Harbour Ferry Terminal

Macau, MACAU

Airport Info
Suggest Updated Information for this Airport

Location

Latitude / Longitude: 22°11'49"N / 113°33'32"E
  22°11.826'N / 113°33.54'E
  22.1971 / 113.5590
Satellite photo at:
Airport distance calculator
From:
Weather Reports

METAR

VMMC
3.1nm SE
VMMC 281900Z 10010KT 9999 FEW008 SCT025 27/26 Q1009 NOSIG
VHHH
21.1nm NE
VHHH 281900Z 10009KT 9999 FEW022 SCT045 27/25 Q1010 NOSIG
ZGSZ
29.4nm N
ZGSZ 281900Z 10004MPS 9999 SCT036 27/24 Q1010 NOSIG

TAF

VMMC
3.1nm SE
TAF VMMC 281702Z 2818/2924 13008KT 9999 FEW012 SCT025 BECMG 2820/2823 19010KT TEMPO 2820/2904 3500 SHRA FEW008 SCT015CB TEMPO 2915/2924 3500 SHRA FEW008 SCT015CB
VHHH
21.1nm NE
TAF VHHH 281700Z 2818/2924 14010KT 9000 FEW015 SCT030 TX31/2906Z TN26/2822Z TN26/2922Z TEMPO 2821/2903 VRB05KT 4000 SHRA FEW010CB SCT020 TEMPO 2903/2909 24010KT 3500 -TSRA SHRA FEW010CB SCT020 TEMPO 2909/2912 4000 SHRA FEW010CB SCT020 TEMPO 2918/2924 24010KT 4000 SHRA FEW010CB SCT020
ZGSZ
29.4nm N
TAF ZGSZ 281519Z 2818/2918 12004MPS 6000 BKN030 TX31/2906Z TN26/2822Z TEMPO 2818/2824 SHRA SCT012 FEW023CB BKN030 TEMPO 2904/2910 TSRA SCT015 FEW025CB BKN033
Safelog

 

Dauntless Aviation

© 2007-2020 Dauntless Aviation, all rights reserved
Information provided via PilotNav comes from a variety of official and unofficial data sources. As errors are possible, do not use PilotNav for primary flight planning purposes. Verify any information that you receive via PilotNav with current and canonical charts and other official documents. The material in this database is subject to database copyrights held by Dauntless Aviation and may not be copied without the express permission of Dauntless Aviation - licenses for use of part of all of this data are available for purchase; enquire via the Dauntless Aviation helpdesk. A number of mechanisms and markers exist in the database to protect against and identify infringement / copyright. Automated queries against this website are stictly prohibited, and all activity is logged and analyzed.